sensor_id;sensor_type;location;lat;lon;timestamp;P1;durP1;ratioP1;P2;durP2;ratioP2
77591;SDS011;66891;46.884;17.436;2023-09-18T00:00:55;17.47;;;9.90;;
77591;SDS011;66891;46.884;17.436;2023-09-18T00:03:25;15.57;;;9.95;;
77591;SDS011;66891;46.884;17.436;2023-09-18T00:05:52;16.05;;;10.00;;
77591;SDS011;66891;46.884;17.436;2023-09-18T00:08:19;14.55;;;9.43;;
77591;SDS011;66891;46.884;17.436;2023-09-18T00:10:46;15.75;;;9.52;;
77591;SDS011;66891;46.884;17.436;2023-09-18T00:13:14;16.53;;;9.80;;
77591;SDS011;66891;46.884;17.436;2023-09-18T00:15:41;16.08;;;9.40;;
77591;SDS011;66891;46.884;17.436;2023-09-18T00:18:10;16.15;;;9.45;;
77591;SDS011;66891;46.884;17.436;2023-09-18T00:20:38;16.27;;;9.77;;
77591;SDS011;66891;46.884;17.436;2023-09-18T00:23:06;15.52;;;9.45;;
77591;SDS011;66891;46.884;17.436;2023-09-18T00:25:34;15.33;;;9.23;;
77591;SDS011;66891;46.884;17.436;2023-09-18T00:28:01;16.13;;;9.60;;
77591;SDS011;66891;46.884;17.436;2023-09-18T00:30:28;17.23;;;10.43;;
77591;SDS011;66891;46.884;17.436;2023-09-18T00:32:55;18.25;;;10.43;;
77591;SDS011;66891;46.884;17.436;2023-09-18T00:35:22;17.13;;;10.45;;
77591;SDS011;66891;46.884;17.436;2023-09-18T00:37:52;17.03;;;10.90;;
77591;SDS011;66891;46.884;17.436;2023-09-18T00:40:19;18.52;;;11.52;;
77591;SDS011;66891;46.884;17.436;2023-09-18T00:42:46;20.17;;;12.00;;
77591;SDS011;66891;46.884;17.436;2023-09-18T00:45:13;17.20;;;10.65;;
77591;SDS011;66891;46.884;17.436;2023-09-18T00:47:40;17.13;;;10.82;;
77591;SDS011;66891;46.884;17.436;2023-09-18T00:50:08;18.47;;;11.30;;
77591;SDS011;66891;46.884;17.436;2023-09-18T00:52:37;17.23;;;11.38;;
77591;SDS011;66891;46.884;17.436;2023-09-18T00:55:06;16.13;;;9.93;;
77591;SDS011;66891;46.884;17.436;2023-09-18T00:57:33;16.02;;;10.10;;
77591;SDS011;66891;46.884;17.436;2023-09-18T01:00:01;17.42;;;10.15;;
77591;SDS011;66891;46.884;17.436;2023-09-18T01:02:28;16.67;;;9.57;;
77591;SDS011;66891;46.884;17.436;2023-09-18T01:04:55;16.52;;;10.15;;
77591;SDS011;66891;46.884;17.436;2023-09-18T01:07:22;16.30;;;10.05;;
77591;SDS011;66891;46.884;17.436;2023-09-18T01:09:49;17.30;;;10.85;;
77591;SDS011;66891;46.884;17.436;2023-09-18T01:12:20;16.20;;;9.68;;
77591;SDS011;66891;46.884;17.436;2023-09-18T01:14:50;16.27;;;10.13;;
77591;SDS011;66891;46.884;17.436;2023-09-18T01:17:18;16.58;;;10.05;;
77591;SDS011;66891;46.884;17.436;2023-09-18T01:19:46;18.15;;;10.57;;
77591;SDS011;66891;46.884;17.436;2023-09-18T01:22:14;15.85;;;9.85;;
77591;SDS011;66891;46.884;17.436;2023-09-18T01:24:43;16.10;;;9.25;;
77591;SDS011;66891;46.884;17.436;2023-09-18T01:27:11;16.80;;;10.17;;
77591;SDS011;66891;46.884;17.436;2023-09-18T01:29:39;15.43;;;9.73;;
77591;SDS011;66891;46.884;17.436;2023-09-18T01:32:06;15.45;;;9.73;;
77591;SDS011;66891;46.884;17.436;2023-09-18T01:34:34;16.27;;;10.65;;
77591;SDS011;66891;46.884;17.436;2023-09-18T01:37:09;19.10;;;10.60;;
77591;SDS011;66891;46.884;17.436;2023-09-18T01:39:36;16.57;;;9.87;;
77591;SDS011;66891;46.884;17.436;2023-09-18T01:42:06;16.42;;;10.38;;
77591;SDS011;66891;46.884;17.436;2023-09-18T01:44:33;18.77;;;11.25;;
77591;SDS011;66891;46.884;17.436;2023-09-18T01:47:01;18.10;;;11.40;;
77591;SDS011;66891;46.884;17.436;2023-09-18T01:49:29;20.42;;;11.45;;
77591;SDS011;66891;46.884;17.436;2023-09-18T01:51:56;19.00;;;11.70;;
77591;SDS011;66891;46.884;17.436;2023-09-18T01:54:24;17.40;;;10.73;;
77591;SDS011;66891;46.884;17.436;2023-09-18T01:56:51;18.30;;;11.63;;
77591;SDS011;66891;46.884;17.436;2023-09-18T01:59:21;19.38;;;11.80;;
77591;SDS011;66891;46.884;17.436;2023-09-18T02:01:49;18.83;;;11.98;;
77591;SDS011;66891;46.884;17.436;2023-09-18T02:04:17;19.50;;;11.40;;
77591;SDS011;66891;46.884;17.436;2023-09-18T02:07:05;19.05;;;11.57;;
77591;SDS011;66891;46.884;17.436;2023-09-18T02:09:32;20.08;;;11.95;;
77591;SDS011;66891;46.884;17.436;2023-09-18T02:11:59;19.65;;;12.23;;
77591;SDS011;66891;46.884;17.436;2023-09-18T02:14:28;19.70;;;12.02;;
77591;SDS011;66891;46.884;17.436;2023-09-18T02:16:58;17.87;;;11.47;;
77591;SDS011;66891;46.884;17.436;2023-09-18T02:19:25;19.15;;;11.25;;
77591;SDS011;66891;46.884;17.436;2023-09-18T02:21:55;20.33;;;11.32;;
77591;SDS011;66891;46.884;17.436;2023-09-18T02:24:22;20.73;;;12.18;;
77591;SDS011;66891;46.884;17.436;2023-09-18T02:26:50;19.27;;;11.40;;
77591;SDS011;66891;46.884;17.436;2023-09-18T02:29:17;18.80;;;11.60;;
77591;SDS011;66891;46.884;17.436;2023-09-18T02:31:45;20.42;;;12.57;;
77591;SDS011;66891;46.884;17.436;2023-09-18T02:34:13;20.42;;;12.18;;
77591;SDS011;66891;46.884;17.436;2023-09-18T02:36:40;19.75;;;12.40;;
77591;SDS011;66891;46.884;17.436;2023-09-18T02:39:07;20.95;;;12.50;;
77591;SDS011;66891;46.884;17.436;2023-09-18T02:41:34;20.87;;;12.80;;
77591;SDS011;66891;46.884;17.436;2023-09-18T02:44:01;18.50;;;11.93;;
77591;SDS011;66891;46.884;17.436;2023-09-18T02:46:28;19.90;;;12.52;;
77591;SDS011;66891;46.884;17.436;2023-09-18T02:48:57;21.27;;;11.63;;
77591;SDS011;66891;46.884;17.436;2023-09-18T02:51:24;18.27;;;11.15;;
77591;SDS011;66891;46.884;17.436;2023-09-18T02:53:52;20.97;;;11.73;;
77591;SDS011;66891;46.884;17.436;2023-09-18T02:56:19;17.70;;;11.13;;
77591;SDS011;66891;46.884;17.436;2023-09-18T02:58:46;19.70;;;10.70;;
77591;SDS011;66891;46.884;17.436;2023-09-18T03:01:13;19.50;;;12.00;;
77591;SDS011;66891;46.884;17.436;2023-09-18T03:03:40;19.42;;;11.43;;
77591;SDS011;66891;46.884;17.436;2023-09-18T03:06:10;21.43;;;11.23;;
77591;SDS011;66891;46.884;17.436;2023-09-18T03:08:37;19.63;;;11.13;;
77591;SDS011;66891;46.884;17.436;2023-09-18T03:11:10;17.30;;;11.23;;
77591;SDS011;66891;46.884;17.436;2023-09-18T03:13:37;20.58;;;12.02;;
77591;SDS011;66891;46.884;17.436;2023-09-18T03:16:09;18.25;;;10.75;;
77591;SDS011;66891;46.884;17.436;2023-09-18T03:18:39;18.53;;;11.53;;
77591;SDS011;66891;46.884;17.436;2023-09-18T03:21:07;19.73;;;11.90;;
77591;SDS011;66891;46.884;17.436;2023-09-18T03:23:36;21.13;;;11.15;;
77591;SDS011;66891;46.884;17.436;2023-09-18T03:26:03;27.25;;;11.55;;
77591;SDS011;66891;46.884;17.436;2023-09-18T03:28:30;23.33;;;11.35;;
77591;SDS011;66891;46.884;17.436;2023-09-18T03:30:58;18.93;;;11.10;;
77591;SDS011;66891;46.884;17.436;2023-09-18T03:33:25;20.35;;;10.98;;
77591;SDS011;66891;46.884;17.436;2023-09-18T03:35:52;19.85;;;11.30;;
77591;SDS011;66891;46.884;17.436;2023-09-18T03:38:21;19.48;;;11.55;;
77591;SDS011;66891;46.884;17.436;2023-09-18T03:40:50;20.15;;;11.77;;
77591;SDS011;66891;46.884;17.436;2023-09-18T03:43:18;20.03;;;11.43;;
77591;SDS011;66891;46.884;17.436;2023-09-18T03:45:45;19.83;;;12.18;;
77591;SDS011;66891;46.884;17.436;2023-09-18T03:48:12;18.50;;;11.50;;
77591;SDS011;66891;46.884;17.436;2023-09-18T03:50:39;20.17;;;11.70;;
77591;SDS011;66891;46.884;17.436;2023-09-18T03:53:07;27.65;;;13.48;;
77591;SDS011;66891;46.884;17.436;2023-09-18T03:55:34;20.57;;;12.53;;
77591;SDS011;66891;46.884;17.436;2023-09-18T03:58:03;24.63;;;13.55;;
77591;SDS011;66891;46.884;17.436;2023-09-18T04:00:31;27.88;;;14.23;;
77591;SDS011;66891;46.884;17.436;2023-09-18T04:02:58;25.17;;;13.70;;
77591;SDS011;66891;46.884;17.436;2023-09-18T04:05:26;26.10;;;14.50;;
77591;SDS011;66891;46.884;17.436;2023-09-18T04:07:53;22.27;;;14.00;;
77591;SDS011;66891;46.884;17.436;2023-09-18T04:10:20;24.35;;;14.25;;
77591;SDS011;66891;46.884;17.436;2023-09-18T04:12:50;22.80;;;13.13;;
77591;SDS011;66891;46.884;17.436;2023-09-18T04:15:20;22.77;;;13.70;;
77591;SDS011;66891;46.884;17.436;2023-09-18T04:17:48;19.88;;;12.68;;
77591;SDS011;66891;46.884;17.436;2023-09-18T04:20:16;21.03;;;13.50;;
77591;SDS011;66891;46.884;17.436;2023-09-18T04:22:43;24.45;;;13.88;;
77591;SDS011;66891;46.884;17.436;2023-09-18T04:25:11;25.02;;;13.77;;
77591;SDS011;66891;46.884;17.436;2023-09-18T04:27:38;26.30;;;14.82;;
77591;SDS011;66891;46.884;17.436;2023-09-18T04:30:06;31.40;;;20.05;;
77591;SDS011;66891;46.884;17.436;2023-09-18T04:32:36;50.97;;;29.70;;
77591;SDS011;66891;46.884;17.436;2023-09-18T04:35:05;71.40;;;38.65;;
77591;SDS011;66891;46.884;17.436;2023-09-18T04:37:35;51.05;;;31.08;;
77591;SDS011;66891;46.884;17.436;2023-09-18T04:40:03;46.60;;;26.23;;
77591;SDS011;66891;46.884;17.436;2023-09-18T04:42:31;37.47;;;21.48;;
77591;SDS011;66891;46.884;17.436;2023-09-18T04:44:58;33.50;;;19.17;;
77591;SDS011;66891;46.884;17.436;2023-09-18T04:47:25;27.90;;;16.67;;
77591;SDS011;66891;46.884;17.436;2023-09-18T04:49:54;27.10;;;15.70;;
77591;SDS011;66891;46.884;17.436;2023-09-18T04:52:21;25.65;;;15.25;;
77591;SDS011;66891;46.884;17.436;2023-09-18T04:54:48;28.92;;;17.20;;
77591;SDS011;66891;46.884;17.436;2023-09-18T04:57:15;29.60;;;18.13;;
77591;SDS011;66891;46.884;17.436;2023-09-18T04:59:45;31.35;;;19.80;;
77591;SDS011;66891;46.884;17.436;2023-09-18T05:02:12;34.67;;;20.67;;
77591;SDS011;66891;46.884;17.436;2023-09-18T05:04:39;31.90;;;19.50;;
77591;SDS011;66891;46.884;17.436;2023-09-18T05:07:08;35.38;;;21.48;;
77591;SDS011;66891;46.884;17.436;2023-09-18T05:09:35;33.57;;;19.93;;
77591;SDS011;66891;46.884;17.436;2023-09-18T05:12:04;33.08;;;20.60;;
77591;SDS011;66891;46.884;17.436;2023-09-18T05:14:31;35.90;;;20.92;;
77591;SDS011;66891;46.884;17.436;2023-09-18T05:16:58;37.35;;;22.67;;
77591;SDS011;66891;46.884;17.436;2023-09-18T05:19:26;33.92;;;22.00;;
77591;SDS011;66891;46.884;17.436;2023-09-18T05:21:53;38.27;;;24.20;;
77591;SDS011;66891;46.884;17.436;2023-09-18T05:24:21;37.33;;;23.85;;
77591;SDS011;66891;46.884;17.436;2023-09-18T05:26:54;36.45;;;21.48;;
77591;SDS011;66891;46.884;17.436;2023-09-18T05:29:21;36.97;;;21.85;;
77591;SDS011;66891;46.884;17.436;2023-09-18T05:31:48;33.30;;;19.92;;
77591;SDS011;66891;46.884;17.436;2023-09-18T05:34:15;28.77;;;18.13;;
77591;SDS011;66891;46.884;17.436;2023-09-18T05:36:42;27.95;;;16.58;;
77591;SDS011;66891;46.884;17.436;2023-09-18T05:39:09;31.42;;;18.77;;
77591;SDS011;66891;46.884;17.436;2023-09-18T05:41:41;29.13;;;18.75;;
77591;SDS011;66891;46.884;17.436;2023-09-18T05:44:09;29.83;;;18.63;;
77591;SDS011;66891;46.884;17.436;2023-09-18T05:46:40;29.90;;;18.27;;
77591;SDS011;66891;46.884;17.436;2023-09-18T05:49:07;31.77;;;17.77;;
77591;SDS011;66891;46.884;17.436;2023-09-18T05:51:45;28.67;;;18.77;;
77591;SDS011;66891;46.884;17.436;2023-09-18T05:57:57;26.88;;;16.48;;
77591;SDS011;66891;46.884;17.436;2023-09-18T06:00:30;26.07;;;16.40;;
77591;SDS011;66891;46.884;17.436;2023-09-18T06:02:58;28.67;;;18.10;;
77591;SDS011;66891;46.884;17.436;2023-09-18T06:05:26;29.55;;;17.88;;
77591;SDS011;66891;46.884;17.436;2023-09-18T06:07:53;27.65;;;17.75;;
77591;SDS011;66891;46.884;17.436;2023-09-18T06:10:20;24.45;;;16.98;;
77591;SDS011;66891;46.884;17.436;2023-09-18T06:12:48;28.33;;;17.37;;
77591;SDS011;66891;46.884;17.436;2023-09-18T06:15:16;27.05;;;17.15;;
77591;SDS011;66891;46.884;17.436;2023-09-18T06:17:44;30.73;;;18.85;;
77591;SDS011;66891;46.884;17.436;2023-09-18T06:20:11;31.05;;;18.83;;
77591;SDS011;66891;46.884;17.436;2023-09-18T06:22:43;29.85;;;18.15;;
77591;SDS011;66891;46.884;17.436;2023-09-18T06:25:10;26.63;;;16.90;;
77591;SDS011;66891;46.884;17.436;2023-09-18T06:27:37;29.80;;;16.63;;
77591;SDS011;66891;46.884;17.436;2023-09-18T06:38:02;27.73;;;16.98;;
77591;SDS011;66891;46.884;17.436;2023-09-18T06:40:29;27.23;;;16.53;;
77591;SDS011;66891;46.884;17.436;2023-09-18T06:43:06;28.45;;;17.17;;
77591;SDS011;66891;46.884;17.436;2023-09-18T06:45:38;28.85;;;17.08;;
77591;SDS011;66891;46.884;17.436;2023-09-18T06:48:09;24.77;;;14.93;;
77591;SDS011;66891;46.884;17.436;2023-09-18T06:51:09;29.55;;;15.57;;
77591;SDS011;66891;46.884;17.436;2023-09-18T06:53:38;24.60;;;15.53;;
77591;SDS011;66891;46.884;17.436;2023-09-18T06:56:05;24.63;;;14.70;;
77591;SDS011;66891;46.884;17.436;2023-09-18T06:58:32;23.55;;;14.82;;
77591;SDS011;66891;46.884;17.436;2023-09-18T07:00:59;23.60;;;14.18;;
77591;SDS011;66891;46.884;17.436;2023-09-18T07:03:27;22.98;;;14.18;;
77591;SDS011;66891;46.884;17.436;2023-09-18T07:05:54;25.37;;;14.83;;
77591;SDS011;66891;46.884;17.436;2023-09-18T07:08:22;24.23;;;15.10;;
77591;SDS011;66891;46.884;17.436;2023-09-18T07:10:51;27.75;;;14.60;;
77591;SDS011;66891;46.884;17.436;2023-09-18T07:13:19;22.88;;;14.48;;
77591;SDS011;66891;46.884;17.436;2023-09-18T07:15:47;23.85;;;14.00;;
77591;SDS011;66891;46.884;17.436;2023-09-18T07:18:15;22.33;;;13.33;;
77591;SDS011;66891;46.884;17.436;2023-09-18T07:20:43;25.55;;;14.52;;
77591;SDS011;66891;46.884;17.436;2023-09-18T07:23:10;24.42;;;13.20;;
77591;SDS011;66891;46.884;17.436;2023-09-18T07:25:37;21.30;;;13.52;;
77591;SDS011;66891;46.884;17.436;2023-09-18T07:28:06;20.73;;;13.85;;
77591;SDS011;66891;46.884;17.436;2023-09-18T07:30:34;22.23;;;13.37;;
77591;SDS011;66891;46.884;17.436;2023-09-18T07:33:04;21.33;;;12.68;;
77591;SDS011;66891;46.884;17.436;2023-09-18T07:35:32;20.05;;;12.63;;
77591;SDS011;66891;46.884;17.436;2023-09-18T07:38:00;25.73;;;13.45;;
77591;SDS011;66891;46.884;17.436;2023-09-18T07:40:31;21.10;;;12.30;;
77591;SDS011;66891;46.884;17.436;2023-09-18T07:43:18;22.63;;;13.47;;
77591;SDS011;66891;46.884;17.436;2023-09-18T07:46:16;25.77;;;12.45;;
77591;SDS011;66891;46.884;17.436;2023-09-18T07:49:15;18.55;;;11.85;;
77591;SDS011;66891;46.884;17.436;2023-09-18T07:51:43;20.45;;;11.93;;
77591;SDS011;66891;46.884;17.436;2023-09-18T07:54:13;21.48;;;11.80;;
77591;SDS011;66891;46.884;17.436;2023-09-18T07:57:11;26.00;;;12.27;;
77591;SDS011;66891;46.884;17.436;2023-09-18T08:02:49;22.88;;;11.23;;
77591;SDS011;66891;46.884;17.436;2023-09-18T08:06:31;17.55;;;11.35;;
77591;SDS011;66891;46.884;17.436;2023-09-18T08:08:34;21.48;;;11.73;;
77591;SDS011;66891;46.884;17.436;2023-09-18T08:11:06;19.63;;;11.40;;
77591;SDS011;66891;46.884;17.436;2023-09-18T08:13:35;18.65;;;11.15;;
77591;SDS011;66891;46.884;17.436;2023-09-18T08:16:02;18.48;;;10.55;;
77591;SDS011;66891;46.884;17.436;2023-09-18T08:18:32;17.90;;;11.10;;
77591;SDS011;66891;46.884;17.436;2023-09-18T08:20:59;17.73;;;10.32;;
77591;SDS011;66891;46.884;17.436;2023-09-18T08:23:27;17.87;;;10.50;;
77591;SDS011;66891;46.884;17.436;2023-09-18T08:25:54;19.33;;;11.35;;
77591;SDS011;66891;46.884;17.436;2023-09-18T08:28:25;17.88;;;10.23;;
77591;SDS011;66891;46.884;17.436;2023-09-18T08:30:52;18.92;;;11.52;;
77591;SDS011;66891;46.884;17.436;2023-09-18T08:33:19;17.42;;;10.85;;
77591;SDS011;66891;46.884;17.436;2023-09-18T08:35:48;17.03;;;9.80;;
77591;SDS011;66891;46.884;17.436;2023-09-18T08:38:16;15.48;;;9.98;;
77591;SDS011;66891;46.884;17.436;2023-09-18T08:40:44;16.05;;;10.63;;
77591;SDS011;66891;46.884;17.436;2023-09-18T08:43:12;15.93;;;9.70;;
77591;SDS011;66891;46.884;17.436;2023-09-18T08:45:43;20.27;;;11.02;;
77591;SDS011;66891;46.884;17.436;2023-09-18T08:48:11;23.10;;;11.17;;
77591;SDS011;66891;46.884;17.436;2023-09-18T08:50:39;18.55;;;10.80;;
77591;SDS011;66891;46.884;17.436;2023-09-18T08:53:08;17.42;;;10.70;;
77591;SDS011;66891;46.884;17.436;2023-09-18T08:55:35;20.10;;;10.80;;
77591;SDS011;66891;46.884;17.436;2023-09-18T08:58:03;27.38;;;11.57;;
77591;SDS011;66891;46.884;17.436;2023-09-18T09:00:31;23.87;;;10.40;;
77591;SDS011;66891;46.884;17.436;2023-09-18T09:02:58;21.00;;;9.48;;
77591;SDS011;66891;46.884;17.436;2023-09-18T09:05:26;25.35;;;10.82;;
77591;SDS011;66891;46.884;17.436;2023-09-18T09:07:53;30.13;;;11.23;;
77591;SDS011;66891;46.884;17.436;2023-09-18T09:10:22;29.17;;;10.45;;
77591;SDS011;66891;46.884;17.436;2023-09-18T09:12:51;28.67;;;10.30;;
77591;SDS011;66891;46.884;17.436;2023-09-18T09:15:20;26.35;;;10.57;;
77591;SDS011;66891;46.884;17.436;2023-09-18T09:17:49;22.92;;;10.38;;
77591;SDS011;66891;46.884;17.436;2023-09-18T09:20:16;17.90;;;9.27;;
77591;SDS011;66891;46.884;17.436;2023-09-18T09:22:45;15.68;;;9.15;;
77591;SDS011;66891;46.884;17.436;2023-09-18T09:25:24;20.97;;;9.73;;
77591;SDS011;66891;46.884;17.436;2023-09-18T09:27:58;17.42;;;8.90;;
77591;SDS011;66891;46.884;17.436;2023-09-18T09:30:31;29.75;;;9.85;;
77591;SDS011;66891;46.884;17.436;2023-09-18T09:32:59;18.67;;;9.88;;
77591;SDS011;66891;46.884;17.436;2023-09-18T09:35:26;19.55;;;10.13;;
77591;SDS011;66891;46.884;17.436;2023-09-18T09:37:55;24.47;;;10.77;;
77591;SDS011;66891;46.884;17.436;2023-09-18T09:40:24;20.92;;;9.68;;
77591;SDS011;66891;46.884;17.436;2023-09-18T09:42:53;22.00;;;9.93;;
77591;SDS011;66891;46.884;17.436;2023-09-18T09:45:24;24.52;;;10.40;;
77591;SDS011;66891;46.884;17.436;2023-09-18T09:47:53;19.58;;;10.13;;
77591;SDS011;66891;46.884;17.436;2023-09-18T09:50:21;17.00;;;9.00;;
77591;SDS011;66891;46.884;17.436;2023-09-18T09:52:49;17.13;;;8.93;;
77591;SDS011;66891;46.884;17.436;2023-09-18T09:55:18;17.55;;;8.60;;
77591;SDS011;66891;46.884;17.436;2023-09-18T09:57:50;19.27;;;8.98;;
77591;SDS011;66891;46.884;17.436;2023-09-18T10:00:18;14.57;;;7.93;;
77591;SDS011;66891;46.884;17.436;2023-09-18T10:02:55;17.70;;;8.83;;
77591;SDS011;66891;46.884;17.436;2023-09-18T10:05:24;18.02;;;8.20;;
77591;SDS011;66891;46.884;17.436;2023-09-18T10:07:57;13.50;;;7.25;;
77591;SDS011;66891;46.884;17.436;2023-09-18T10:10:27;21.70;;;7.90;;
77591;SDS011;66891;46.884;17.436;2023-09-18T10:12:57;11.32;;;7.30;;
77591;SDS011;66891;46.884;17.436;2023-09-18T10:15:35;64.33;;;11.53;;
77591;SDS011;66891;46.884;17.436;2023-09-18T10:18:27;33.40;;;8.65;;
77591;SDS011;66891;46.884;17.436;2023-09-18T10:20:57;15.90;;;6.63;;
77591;SDS011;66891;46.884;17.436;2023-09-18T10:23:31;25.67;;;8.48;;
77591;SDS011;66891;46.884;17.436;2023-09-18T10:26:01;13.85;;;6.63;;
77591;SDS011;66891;46.884;17.436;2023-09-18T10:28:31;22.77;;;8.27;;
77591;SDS011;66891;46.884;17.436;2023-09-18T10:31:00;28.30;;;7.50;;
77591;SDS011;66891;46.884;17.436;2023-09-18T10:33:28;34.40;;;8.32;;
77591;SDS011;66891;46.884;17.436;2023-09-18T10:35:57;29.67;;;8.02;;
77591;SDS011;66891;46.884;17.436;2023-09-18T10:38:25;18.05;;;7.30;;
77591;SDS011;66891;46.884;17.436;2023-09-18T10:41:07;17.87;;;7.60;;
77591;SDS011;66891;46.884;17.436;2023-09-18T10:43:38;46.85;;;9.77;;
77591;SDS011;66891;46.884;17.436;2023-09-18T10:46:05;39.88;;;8.82;;
77591;SDS011;66891;46.884;17.436;2023-09-18T10:48:33;25.13;;;8.07;;
77591;SDS011;66891;46.884;17.436;2023-09-18T10:51:00;30.70;;;7.20;;
77591;SDS011;66891;46.884;17.436;2023-09-18T10:53:32;19.60;;;7.27;;
77591;SDS011;66891;46.884;17.436;2023-09-18T10:56:00;43.42;;;8.00;;
77591;SDS011;66891;46.884;17.436;2023-09-18T10:58:27;37.47;;;9.25;;
77591;SDS011;66891;46.884;17.436;2023-09-18T11:00:56;15.63;;;7.05;;
77591;SDS011;66891;46.884;17.436;2023-09-18T11:03:24;20.30;;;6.95;;
77591;SDS011;66891;46.884;17.436;2023-09-18T11:06:04;16.10;;;6.07;;
77591;SDS011;66891;46.884;17.436;2023-09-18T11:08:32;30.75;;;8.02;;
77591;SDS011;66891;46.884;17.436;2023-09-18T11:11:01;20.63;;;7.32;;
77591;SDS011;66891;46.884;17.436;2023-09-18T11:13:31;19.50;;;6.47;;
77591;SDS011;66891;46.884;17.436;2023-09-18T11:16:15;30.70;;;7.22;;
77591;SDS011;66891;46.884;17.436;2023-09-18T11:18:47;41.23;;;7.87;;
77591;SDS011;66891;46.884;17.436;2023-09-18T11:21:17;23.85;;;8.02;;
77591;SDS011;66891;46.884;17.436;2023-09-18T11:23:45;22.67;;;6.97;;
77591;SDS011;66891;46.884;17.436;2023-09-18T11:26:15;22.50;;;6.88;;
77591;SDS011;66891;46.884;17.436;2023-09-18T11:28:42;33.03;;;7.55;;
77591;SDS011;66891;46.884;17.436;2023-09-18T11:31:18;49.40;;;8.20;;
77591;SDS011;66891;46.884;17.436;2023-09-18T11:33:49;33.42;;;7.63;;
77591;SDS011;66891;46.884;17.436;2023-09-18T11:36:28;21.50;;;6.35;;
77591;SDS011;66891;46.884;17.436;2023-09-18T11:38:57;24.05;;;6.28;;
77591;SDS011;66891;46.884;17.436;2023-09-18T11:41:30;34.13;;;7.53;;
77591;SDS011;66891;46.884;17.436;2023-09-18T11:46:48;34.25;;;7.45;;
77591;SDS011;66891;46.884;17.436;2023-09-18T11:49:19;27.15;;;6.57;;
77591;SDS011;66891;46.884;17.436;2023-09-18T11:51:48;28.00;;;6.75;;
77591;SDS011;66891;46.884;17.436;2023-09-18T11:54:17;17.58;;;5.82;;
77591;SDS011;66891;46.884;17.436;2023-09-18T11:56:44;22.23;;;5.57;;
77591;SDS011;66891;46.884;17.436;2023-09-18T11:59:11;18.00;;;6.25;;
77591;SDS011;66891;46.884;17.436;2023-09-18T12:01:39;18.60;;;5.93;;
77591;SDS011;66891;46.884;17.436;2023-09-18T12:04:08;26.92;;;6.18;;
77591;SDS011;66891;46.884;17.436;2023-09-18T12:06:36;17.85;;;5.47;;
77591;SDS011;66891;46.884;17.436;2023-09-18T12:09:03;22.40;;;6.60;;
77591;SDS011;66891;46.884;17.436;2023-09-18T12:11:32;22.98;;;6.90;;
77591;SDS011;66891;46.884;17.436;2023-09-18T12:14:01;20.20;;;6.85;;
77591;SDS011;66891;46.884;17.436;2023-09-18T12:16:31;22.33;;;7.15;;
77591;SDS011;66891;46.884;17.436;2023-09-18T12:19:05;22.63;;;6.55;;
77591;SDS011;66891;46.884;17.436;2023-09-18T12:21:41;17.00;;;5.70;;
77591;SDS011;66891;46.884;17.436;2023-09-18T12:24:12;14.93;;;5.90;;
77591;SDS011;66891;46.884;17.436;2023-09-18T12:26:39;19.17;;;5.80;;
77591;SDS011;66891;46.884;17.436;2023-09-18T12:29:07;21.30;;;6.45;;
77591;SDS011;66891;46.884;17.436;2023-09-18T12:31:35;23.85;;;6.85;;
77591;SDS011;66891;46.884;17.436;2023-09-18T12:34:02;14.03;;;5.80;;
77591;SDS011;66891;46.884;17.436;2023-09-18T12:36:29;13.68;;;5.90;;
77591;SDS011;66891;46.884;17.436;2023-09-18T12:38:59;14.48;;;5.25;;
77591;SDS011;66891;46.884;17.436;2023-09-18T12:41:27;17.05;;;6.25;;
77591;SDS011;66891;46.884;17.436;2023-09-18T12:43:57;16.33;;;5.80;;
77591;SDS011;66891;46.884;17.436;2023-09-18T12:46:24;18.33;;;6.77;;
77591;SDS011;66891;46.884;17.436;2023-09-18T12:48:52;20.90;;;7.22;;
77591;SDS011;66891;46.884;17.436;2023-09-18T12:51:19;15.95;;;6.50;;
77591;SDS011;66891;46.884;17.436;2023-09-18T12:54:00;22.23;;;6.57;;
77591;SDS011;66891;46.884;17.436;2023-09-18T12:56:27;15.57;;;6.00;;
77591;SDS011;66891;46.884;17.436;2023-09-18T12:58:57;42.83;;;7.67;;
77591;SDS011;66891;46.884;17.436;2023-09-18T13:01:41;18.85;;;5.63;;
77591;SDS011;66891;46.884;17.436;2023-09-18T13:04:12;14.30;;;5.43;;
77591;SDS011;66891;46.884;17.436;2023-09-18T13:06:39;14.30;;;5.32;;
77591;SDS011;66891;46.884;17.436;2023-09-18T13:09:17;14.07;;;5.60;;
77591;SDS011;66891;46.884;17.436;2023-09-18T13:11:53;19.10;;;5.77;;
77591;SDS011;66891;46.884;17.436;2023-09-18T13:14:21;23.85;;;6.18;;
77591;SDS011;66891;46.884;17.436;2023-09-18T13:16:48;19.23;;;6.32;;
77591;SDS011;66891;46.884;17.436;2023-09-18T13:19:15;15.50;;;6.15;;
77591;SDS011;66891;46.884;17.436;2023-09-18T13:21:48;22.17;;;5.57;;
77591;SDS011;66891;46.884;17.436;2023-09-18T13:24:29;21.80;;;6.13;;
77591;SDS011;66891;46.884;17.436;2023-09-18T13:26:56;19.45;;;5.65;;
77591;SDS011;66891;46.884;17.436;2023-09-18T13:29:26;12.85;;;5.43;;
77591;SDS011;66891;46.884;17.436;2023-09-18T13:31:53;14.45;;;5.65;;
77591;SDS011;66891;46.884;17.436;2023-09-18T13:34:20;11.65;;;4.90;;
77591;SDS011;66891;46.884;17.436;2023-09-18T13:36:49;12.77;;;5.80;;
77591;SDS011;66891;46.884;17.436;2023-09-18T13:39:16;20.55;;;5.90;;
77591;SDS011;66891;46.884;17.436;2023-09-18T13:41:47;13.48;;;4.13;;
77591;SDS011;66891;46.884;17.436;2023-09-18T13:44:14;11.07;;;4.50;;
77591;SDS011;66891;46.884;17.436;2023-09-18T13:46:47;15.00;;;4.30;;
77591;SDS011;66891;46.884;17.436;2023-09-18T13:49:14;27.67;;;5.23;;
77591;SDS011;66891;46.884;17.436;2023-09-18T13:51:41;20.80;;;4.65;;
77591;SDS011;66891;46.884;17.436;2023-09-18T13:54:08;26.95;;;5.80;;
77591;SDS011;66891;46.884;17.436;2023-09-18T13:56:35;14.05;;;5.13;;
77591;SDS011;66891;46.884;17.436;2023-09-18T13:59:06;11.30;;;4.68;;
77591;SDS011;66891;46.884;17.436;2023-09-18T14:01:35;11.13;;;4.67;;
77591;SDS011;66891;46.884;17.436;2023-09-18T14:04:03;16.30;;;4.82;;
77591;SDS011;66891;46.884;17.436;2023-09-18T14:06:31;12.07;;;4.80;;
77591;SDS011;66891;46.884;17.436;2023-09-18T14:08:58;10.52;;;4.80;;
77591;SDS011;66891;46.884;17.436;2023-09-18T14:11:26;11.00;;;4.13;;
77591;SDS011;66891;46.884;17.436;2023-09-18T14:13:53;11.67;;;4.67;;
77591;SDS011;66891;46.884;17.436;2023-09-18T14:16:22;10.73;;;4.80;;
77591;SDS011;66891;46.884;17.436;2023-09-18T14:18:51;9.88;;;4.45;;
77591;SDS011;66891;46.884;17.436;2023-09-18T14:21:23;11.75;;;5.45;;
77591;SDS011;66891;46.884;17.436;2023-09-18T14:23:51;8.95;;;4.47;;
77591;SDS011;66891;46.884;17.436;2023-09-18T14:26:18;12.27;;;4.50;;
77591;SDS011;66891;46.884;17.436;2023-09-18T14:28:47;11.60;;;4.30;;
77591;SDS011;66891;46.884;17.436;2023-09-18T14:31:14;9.38;;;4.38;;
77591;SDS011;66891;46.884;17.436;2023-09-18T14:33:43;8.20;;;3.92;;
77591;SDS011;66891;46.884;17.436;2023-09-18T14:36:10;12.57;;;4.57;;
77591;SDS011;66891;46.884;17.436;2023-09-18T14:38:37;14.03;;;4.67;;
77591;SDS011;66891;46.884;17.436;2023-09-18T14:41:05;12.63;;;4.95;;
77591;SDS011;66891;46.884;17.436;2023-09-18T14:43:32;10.82;;;5.10;;